createdAt,value
2023-03-03T00:01:35.902Z,48.88
2023-03-03T00:06:40.590Z,69.30
2023-03-03T00:11:43.878Z,32.83
2023-03-03T00:16:49.207Z,43.33
2023-03-03T00:21:57.059Z,43.30
2023-03-03T00:27:04.296Z,57.13
2023-03-03T00:32:28.481Z,54.75
2023-03-03T00:37:35.668Z,40.97
2023-03-03T00:42:38.956Z,42.63
2023-03-03T00:47:45.068Z,44.22
2023-03-03T00:53:05.110Z,34.03
2023-03-03T00:58:08.344Z,26.73
2023-03-03T01:03:18.746Z,34.78
2023-03-03T01:08:24.186Z,32.38
2023-03-03T01:13:31.030Z,28.60
2023-03-03T01:18:36.123Z,52.05
2023-03-03T01:23:41.102Z,34.08
2023-03-03T01:28:44.923Z,57.58
2023-03-03T01:33:48.113Z,34.50
2023-03-03T01:38:53.138Z,44.30
2023-03-03T01:43:56.396Z,42.97
2023-03-03T01:49:03.406Z,43.33
2023-03-03T01:54:13.610Z,42.30
2023-03-03T01:59:22.148Z,28.25
2023-03-03T02:04:26.538Z,35.63
2023-03-03T02:09:38.359Z,33.42
2023-03-03T02:14:41.625Z,30.92
2023-03-03T02:19:53.847Z,30.58
2023-03-03T02:25:03.201Z,31.85
2023-03-03T02:30:15.547Z,32.28
2023-03-03T02:35:31.743Z,24.15
2023-03-03T02:40:39.864Z,26.58
2023-03-03T02:45:45.460Z,21.00
2023-03-03T02:50:48.877Z,27.98
2023-03-03T02:55:52.131Z,18.55
2023-03-03T03:00:57.281Z,24.42
2023-03-03T03:06:00.742Z,19.25
2023-03-03T03:11:05.852Z,27.50
2023-03-03T03:16:11.307Z,25.77
2023-03-03T03:21:15.341Z,14.07
2023-03-03T03:26:21.085Z,29.17
2023-03-03T03:31:27.582Z,25.92
2023-03-03T03:36:33.087Z,28.13
2023-03-03T03:41:37.132Z,16.33
2023-03-03T03:46:42.354Z,17.85
2023-03-03T03:51:47.378Z,16.77
2023-03-03T03:56:54.622Z,14.95
2023-03-03T04:02:00.111Z,16.10
2023-03-03T04:07:03.480Z,24.30
2023-03-03T04:12:07.096Z,15.73
2023-03-03T04:17:18.389Z,12.98
2023-03-03T04:22:22.824Z,14.30
2023-03-03T04:27:26.663Z,12.75
2023-03-03T04:32:33.759Z,10.27
2023-03-03T04:37:39.918Z,15.52
2023-03-03T04:42:43.960Z,9.57
2023-03-03T04:47:48.655Z,13.57
2023-03-03T04:52:53.147Z,12.77
2023-03-03T04:57:56.555Z,15.70
2023-03-03T05:03:01.661Z,16.20
2023-03-03T05:08:05.557Z,10.27
2023-03-03T05:13:09.575Z,12.80
2023-03-03T05:18:14.188Z,17.05
2023-03-03T05:23:17.522Z,14.57
2023-03-03T05:28:20.806Z,13.10
2023-03-03T05:33:25.495Z,12.30
2023-03-03T05:38:28.858Z,13.67
2023-03-03T05:43:32.580Z,11.02
2023-03-03T05:48:37.256Z,14.93
2023-03-03T05:53:40.769Z,14.80
2023-03-03T05:58:44.009Z,13.93
2023-03-03T06:03:48.704Z,15.73
2023-03-03T06:08:55.520Z,15.80
2023-03-03T06:14:00.570Z,14.57
2023-03-03T06:19:05.335Z,19.77
2023-03-03T06:24:09.635Z,13.97
2023-03-03T06:29:15.286Z,11.18
2023-03-03T06:34:20.488Z,10.68
2023-03-03T06:39:23.987Z,14.50
2023-03-03T06:44:28.978Z,16.55
2023-03-03T06:49:34.041Z,18.00
2023-03-03T06:54:37.499Z,18.35
2023-03-03T06:59:42.571Z,13.18
2023-03-03T07:04:48.173Z,12.85
2023-03-03T07:09:53.588Z,19.52
2023-03-03T07:20:16.227Z,12.85
2023-03-03T07:25:28.513Z,13.85
2023-03-03T07:30:32.009Z,12.80
2023-03-03T07:35:41.569Z,16.02
2023-03-03T07:40:49.362Z,15.32
2023-03-03T07:45:53.308Z,20.02
2023-03-03T07:50:59.296Z,17.23
2023-03-03T07:56:04.597Z,22.17
2023-03-03T08:01:42.719Z,18.20
2023-03-03T08:06:49.999Z,19.33
2023-03-03T08:11:56.146Z,18.23
2023-03-03T08:17:01.688Z,23.42
2023-03-03T08:22:16.017Z,21.92
2023-03-03T08:27:19.550Z,21.58
2023-03-03T08:32:22.902Z,15.18
2023-03-03T08:37:27.632Z,18.40
2023-03-03T08:42:31.561Z,16.73
2023-03-03T08:47:38.377Z,17.33
2023-03-03T08:52:43.159Z,17.13
2023-03-03T08:57:46.555Z,18.83
2023-03-03T09:02:50.653Z,17.25
2023-03-03T09:07:55.889Z,14.10
2023-03-03T09:13:01.968Z,11.40
2023-03-03T09:18:15.949Z,16.52
2023-03-03T09:23:36.132Z,19.60
2023-03-03T09:28:39.866Z,19.40
2023-03-03T09:33:46.470Z,19.00
2023-03-03T09:38:51.458Z,15.07
2023-03-03T09:44:19.910Z,16.88
2023-03-03T09:49:29.947Z,17.70
2023-03-03T09:54:45.871Z,23.65
2023-03-03T10:00:05.441Z,16.30
2023-03-03T10:05:26.558Z,18.55
2023-03-03T10:10:50.532Z,16.90
2023-03-03T10:16:07.513Z,15.32
2023-03-03T10:21:12.765Z,15.18
2023-03-03T10:26:38.236Z,16.15
2023-03-03T10:31:57.086Z,18.25
2023-03-03T10:37:06.522Z,21.50
2023-03-03T10:42:35.646Z,19.40
2023-03-03T10:48:05.604Z,20.50
2023-03-03T10:53:20.983Z,17.42
2023-03-03T10:58:47.985Z,19.45
2023-03-03T11:04:26.187Z,21.17
2023-03-03T11:09:58.616Z,29.50
2023-03-03T11:15:18.986Z,24.50
2023-03-03T11:20:35.498Z,26.13
2023-03-03T11:25:47.639Z,20.88
2023-03-03T11:31:06.190Z,26.38
2023-03-03T11:36:13.626Z,35.15
2023-03-03T11:41:32.982Z,25.38
2023-03-03T11:46:41.763Z,32.47
2023-03-03T11:51:53.687Z,26.27
2023-03-03T11:57:12.033Z,26.42
2023-03-03T12:02:49.099Z,23.40
2023-03-03T12:08:01.006Z,24.27
2023-03-03T12:13:07.603Z,20.65
2023-03-03T12:18:33.334Z,21.95
2023-03-03T12:23:48.290Z,18.15
2023-03-03T12:28:54.949Z,17.70
2023-03-03T12:34:09.849Z,17.83
2023-03-03T12:39:33.773Z,16.83
2023-03-03T12:44:45.138Z,17.73
2023-03-03T12:50:10.731Z,20.52
2023-03-03T12:55:22.266Z,20.15
2023-03-03T13:00:33.921Z,24.80
2023-03-03T13:05:49.257Z,23.35
2023-03-03T13:10:59.722Z,23.58
2023-03-03T13:16:06.829Z,33.90
2023-03-03T13:21:19.041Z,29.25
2023-03-03T13:26:27.673Z,29.23
2023-03-03T13:31:34.855Z,28.98
2023-03-03T13:36:43.335Z,29.38
2023-03-03T13:41:49.235Z,23.77
2023-03-03T13:47:05.390Z,29.08
2023-03-03T13:52:12.770Z,27.88
2023-03-03T13:57:27.012Z,24.42
2023-03-03T14:02:51.143Z,21.98
2023-03-03T14:08:01.002Z,24.92
2023-03-03T14:13:07.889Z,24.80
2023-03-03T14:18:24.240Z,25.77
2023-03-03T14:23:34.608Z,24.88
2023-03-03T14:28:44.036Z,24.00
2023-03-03T14:33:58.708Z,39.92
2023-03-03T14:39:03.995Z,26.25
2023-03-03T14:44:27.042Z,21.55
2023-03-03T14:49:32.950Z,29.60
2023-03-03T14:54:40.443Z,24.20
2023-03-03T14:59:57.585Z,21.10
2023-03-03T15:05:22.817Z,15.70
2023-03-03T15:10:37.996Z,22.23
2023-03-03T15:15:53.024Z,19.67
2023-03-03T15:21:03.105Z,25.23
2023-03-03T15:26:11.531Z,28.92
2023-03-03T15:31:31.220Z,21.00
2023-03-03T15:36:41.531Z,16.73
2023-03-03T15:41:56.864Z,20.15
2023-03-03T15:47:23.409Z,16.92
2023-03-03T15:52:43.356Z,14.98
2023-03-03T15:58:01.828Z,21.75
2023-03-03T16:03:15.359Z,17.25
2023-03-03T16:08:23.724Z,18.52
2023-03-03T16:13:45.624Z,15.73
2023-03-03T16:19:00.563Z,18.27
2023-03-03T16:24:14.283Z,17.20
2023-03-03T16:29:40.492Z,16.25
2023-03-03T16:34:55.708Z,17.33
2023-03-03T16:40:08.058Z,20.27
2023-03-03T16:45:22.835Z,18.08
2023-03-03T16:50:32.423Z,12.85
2023-03-03T16:55:43.586Z,16.20
2023-03-03T17:00:56.376Z,16.63
2023-03-03T17:06:05.304Z,13.65
2023-03-03T17:11:18.302Z,15.35
2023-03-03T17:16:39.860Z,13.50
2023-03-03T17:22:05.382Z,22.73
2023-03-03T17:27:15.808Z,19.33
2023-03-03T17:32:40.943Z,33.80
2023-03-03T17:37:54.081Z,22.07
2023-03-03T17:43:05.051Z,20.10
2023-03-03T17:48:27.064Z,23.63
2023-03-03T17:53:47.283Z,25.30
2023-03-03T17:59:30.789Z,24.45
2023-03-03T18:05:01.568Z,28.73
2023-03-03T18:10:38.394Z,27.17
2023-03-03T18:16:10.843Z,34.75
2023-03-03T18:21:22.516Z,25.13
2023-03-03T18:26:38.122Z,30.75
2023-03-03T18:32:03.941Z,28.80
2023-03-03T18:37:12.798Z,32.13
2023-03-03T18:42:38.227Z,28.58
2023-03-03T18:48:04.910Z,25.30
2023-03-03T18:53:36.234Z,25.70
2023-03-03T18:58:42.475Z,27.00
2023-03-03T19:04:10.963Z,21.15
2023-03-03T19:09:21.125Z,17.60
2023-03-03T19:14:38.018Z,14.95
2023-03-03T19:20:02.318Z,20.13
2023-03-03T19:25:18.491Z,24.52
2023-03-03T19:30:41.197Z,16.98
2023-03-03T19:36:22.402Z,24.60
2023-03-03T19:41:41.937Z,15.02
2023-03-03T19:46:59.956Z,13.80
2023-03-03T19:52:08.599Z,16.77
2023-03-03T19:57:24.740Z,17.45
2023-03-03T20:02:38.176Z,14.27
2023-03-03T20:07:49.137Z,17.52
2023-03-03T20:13:04.676Z,14.77
2023-03-03T20:18:36.888Z,13.85
2023-03-03T20:23:53.044Z,10.57
2023-03-03T20:29:16.941Z,12.00
2023-03-03T20:34:30.761Z,13.68
2023-03-03T20:39:54.200Z,11.73
2023-03-03T20:45:20.222Z,14.00
2023-03-03T20:55:42.115Z,12.27
2023-03-03T21:00:54.315Z,9.70
2023-03-03T21:06:00.726Z,8.15
2023-03-03T21:11:05.385Z,12.95
2023-03-03T21:16:18.277Z,11.40
2023-03-03T21:21:21.973Z,10.13
2023-03-03T21:26:48.496Z,11.15
2023-03-03T21:31:54.996Z,9.73
2023-03-03T21:36:59.535Z,16.10
2023-03-03T21:42:05.433Z,14.18
2023-03-03T21:47:12.641Z,13.93
2023-03-03T21:52:18.489Z,15.50
2023-03-03T21:57:22.704Z,13.10
2023-03-03T22:02:27.786Z,13.85
2023-03-03T22:07:31.774Z,18.05
2023-03-03T22:12:35.344Z,16.25
2023-03-03T22:17:40.839Z,18.33
2023-03-03T22:22:44.516Z,22.42
2023-03-03T22:27:48.186Z,24.77
2023-03-03T22:32:57.911Z,21.08
2023-03-03T22:38:01.700Z,28.90
2023-03-03T22:43:06.712Z,23.25
2023-03-03T22:48:11.918Z,20.20
2023-03-03T22:53:15.247Z,24.15
2023-03-03T22:58:20.123Z,20.58
2023-03-03T23:03:25.702Z,19.37
2023-03-03T23:08:29.098Z,17.88
2023-03-03T23:13:32.807Z,17.85
2023-03-03T23:18:37.508Z,19.10
2023-03-03T23:23:41.116Z,18.83
2023-03-03T23:28:45.053Z,14.95
2023-03-03T23:33:50.063Z,23.08
2023-03-03T23:38:53.850Z,15.65
2023-03-03T23:43:57.485Z,12.20
2023-03-03T23:49:02.657Z,16.35
2023-03-03T23:54:06.520Z,15.75
2023-03-03T23:59:10.250Z,18.58
